Aviation Digital Data Service (ADDS)

Output produced by METARs form (1102 UTC 30 April 2017)
found at http://www.aviationweather.gov/adds/metars/
 
KLGA 300822Z 3008/0106 02009KT P6SM SCT060 
     FM301100 04010KT P6SM BKN060 
     FM301300 06012KT P6SM BKN060 
     FM301600 09011KT P6SM BKN060 
     FM301900 11011KT P6SM FEW025 BKN040 
     FM302300 08011KT P6SM SCT015 BKN025 
     FM010100 08011KT P6SM FEW008 BKN015 
     FM010300 09010KT P6SM FEW003 OVC008